Time;durP1;ratioP1;P1;durP2;ratioP2;P2;SDS_P1;SDS_P2;PMS_P1;PMS_P2;Temp;Humidity;BMP_temperature;BMP_pressure;BME280_temperature;BME280_humidity;BME280_pressure;Samples;Min_cycle;Max_cycle;Signal;HPM_P1;HPM_P2
2021/10/26 00:01:16;;;;;;;;;;;;;;;;;;5071726;28;19924;-78
2021/10/26 00:03:43;;;;;;;;;;;;;;;;;;5071233;28;19963;-78
2021/10/26 00:06:11;;;;;;;;;;;;;;;;;;5071524;28;19928;-77
2021/10/26 00:08:38;;;;;;;;;;;;;;;;;;5071380;28;20273;-78
2021/10/26 00:11:06;;;;;;;;;;;;;;;;;;5071260;28;20250;-77
2021/10/26 00:13:33;;;;;;;;;;;;;;;;;;5071427;28;19944;-79
2021/10/26 00:16:00;;;;;;;;;;;;;;;;;;5071318;28;19940;-79
2021/10/26 00:18:27;;;;;;;;;;;;;;;;;;5071259;28;19958;-79
2021/10/26 00:20:54;;;;;;;;;;;;;;;;;;5071591;28;19924;-78
2021/10/26 00:23:22;;;;;;;;;;;;;;;;;;5071248;28;19929;-79
2021/10/26 00:25:49;;;;;;;;;;;;;;;;;;5070944;28;19940;-79
2021/10/26 00:28:16;;;;;;;;;;;;;;;;;;5071142;28;19925;-79
2021/10/26 00:30:44;;;;;;;;;;;;;;;;;;5071178;28;19933;-79
2021/10/26 00:33:11;;;;;;;;;;;;;;;;;;5071583;28;19939;-78
2021/10/26 00:35:38;;;;;;;;;;;;;;;;;;5071165;28;19932;-78
2021/10/26 00:38:05;;;;;;;;;;;;;;;;;;5070975;28;20010;-79
2021/10/26 00:40:33;;;;;;;;;;;;;;;;;;5070786;28;20368;-79
2021/10/26 00:43:00;;;;;;;;;;;;;;;;;;5071304;28;19940;-78
2021/10/26 00:45:28;;;;;;;;;;;;;;;;;;5072571;28;20401;-79
2021/10/26 00:47:55;;;;;;;;;;;;;;;;;;5074375;28;19929;-79
2021/10/26 00:50:22;;;;;;;;;;;;;;;;;;5075289;28;20235;-80
2021/10/26 00:52:49;;;;;;;;;;;;;;;;;;5074753;28;19924;-80
2021/10/26 00:55:17;;;;;;;;;;;;;;;;;;5074710;28;20357;-77
2021/10/26 00:57:45;;;;;;;;;;;;;;;;;;5074669;28;19935;-79
2021/10/26 01:00:13;;;;;;;;;;;;;;;;;;5074714;28;20258;-79
2021/10/26 01:02:41;;;;;;;;;;;;;;;;;;5074642;28;19929;-79
2021/10/26 01:05:09;;;;;;;;;;;;;;;;;;5074355;28;19960;-79
2021/10/26 01:07:36;;;;;;;;;;;;;;;;;;5074110;28;19932;-79
2021/10/26 01:10:04;;;;;;;;;;;;;;;;;;5074548;28;20011;-77
2021/10/26 01:12:31;;;;;;;;;;;;;;;;;;5074310;28;19929;-78
2021/10/26 01:14:59;;;;;;;;;;;;;;;;;;5074309;28;19928;-79
2021/10/26 01:17:27;;;;;;;;;;;;;;;;;;5074334;28;19924;-79
2021/10/26 01:19:56;;;;;;;;;;;;;;;;;;5074264;28;19929;-78
2021/10/26 01:22:24;;;;;;;;;;;;;;;;;;5074245;28;19955;-78
2021/10/26 01:24:52;;;;;;;;;;;;;;;;;;5073944;28;19924;-77
2021/10/26 01:27:20;;;;;;;;;;;;;;;;;;5074124;28;20096;-77
2021/10/26 01:29:47;;;;;;;;;;;;;;;;;;5074173;28;19958;-77
2021/10/26 01:32:16;;;;;;;;;;;;;;;;;;5073986;28;19931;-78
2021/10/26 01:34:43;;;;;;;;;;;;;;;;;;5073847;28;19936;-78
2021/10/26 01:37:12;;;;;;;;;;;;;;;;;;5073579;28;19932;-78
2021/10/26 01:39:39;;;;;;;;;;;;;;;;;;5073864;28;20269;-80
2021/10/26 01:42:07;;;;;;;;;;;;;;;;;;5074019;28;19955;-78
2021/10/26 01:44:35;;;;;;;;;;;;;;;;;;5073796;28;20421;-77
2021/10/26 01:47:02;;;;;;;;;;;;;;;;;;5073840;28;19924;-79
2021/10/26 01:49:29;;;;;;;;;;;;;;;;;;5073517;28;19924;-79
2021/10/26 01:51:57;;;;;;;;;;;;;;;;;;5073120;28;19924;-78
2021/10/26 01:54:26;;;;;;;;;;;;;;;;;;5073473;28;19939;-77
2021/10/26 01:56:53;;;;;;;;;;;;;;;;;;5073298;28;20103;-77
2021/10/26 01:59:20;;;;;;;;;;;;;;;;;;5073433;28;19928;-78
2021/10/26 02:01:47;;;;;;;;;;;;;;;;;;5073052;28;20376;-79
2021/10/26 02:04:14;;;;;;;;;;;;;;;;;;5073569;28;20266;-77
2021/10/26 02:06:41;;;;;;;;;;;;;;;;;;5072962;28;19929;-78
2021/10/26 02:09:08;;;;;;;;;;;;;;;;;;5073328;28;19928;-78
2021/10/26 02:11:37;;;;;;;;;;;;;;;;;;5073179;28;19932;-78
2021/10/26 02:14:04;;;;;;;;;;;;;;;;;;5073433;28;19929;-79
2021/10/26 02:16:32;;;;;;;;;;;;;;;;;;5073106;28;20368;-77
2021/10/26 02:18:59;;;;;;;;;;;;;;;;;;5073003;28;19929;-79
2021/10/26 02:21:26;;;;;;;;;;;;;;;;;;5073328;28;19931;-78
2021/10/26 02:23:53;;;;;;;;;;;;;;;;;;5072426;28;19936;-79
2021/10/26 02:26:20;;;;;;;;;;;;;;;;;;5073335;28;20260;-79
2021/10/26 02:28:48;;;;;;;;;;;;;;;;;;5073204;28;19928;-80
2021/10/26 02:31:16;;;;;;;;;;;;;;;;;;5072822;28;20326;-79
2021/10/26 02:33:43;;;;;;;;;;;;;;;;;;5072765;28;20408;-78
2021/10/26 02:36:10;;;;;;;;;;;;;;;;;;5072602;28;19925;-80
2021/10/26 02:38:37;;;;;;;;;;;;;;;;;;5072467;28;20341;-77
2021/10/26 02:41:05;;;;;;;;;;;;;;;;;;5072930;28;19935;-79
2021/10/26 02:43:32;;;;;;;;;;;;;;;;;;5072776;28;19925;-78
2021/10/26 02:46:01;;;;;;;;;;;;;;;;;;5072520;28;19928;-79
2021/10/26 02:48:28;;;;;;;;;;;;;;;;;;5072126;28;20002;-79
2021/10/26 02:50:55;;;;;;;;;;;;;;;;;;5072190;28;19925;-78
2021/10/26 02:53:23;;;;;;;;;;;;;;;;;;5072629;28;20234;-79
2021/10/26 02:55:50;;;;;;;;;;;;;;;;;;5072342;28;19925;-79
2021/10/26 02:58:17;;;;;;;;;;;;;;;;;;5072609;28;19924;-79
2021/10/26 03:00:45;;;;;;;;;;;;;;;;;;5072019;28;20357;-79
2021/10/26 03:03:13;;;;;;;;;;;;;;;;;;5072239;28;20350;-80
2021/10/26 03:05:41;;;;;;;;;;;;;;;;;;5072342;28;19935;-78
2021/10/26 03:08:08;;;;;;;;;;;;;;;;;;5071481;28;19954;-79
2021/10/26 03:10:35;;;;;;;;;;;;;;;;;;5072085;28;19924;-79
2021/10/26 03:13:02;;;;;;;;;;;;;;;;;;5072057;28;20281;-78
2021/10/26 03:15:30;;;;;;;;;;;;;;;;;;5072129;28;19951;-77
2021/10/26 03:17:57;;;;;;;;;;;;;;;;;;5071433;28;19935;-77
2021/10/26 03:20:25;;;;;;;;;;;;;;;;;;5072143;28;19928;-77
2021/10/26 03:22:52;;;;;;;;;;;;;;;;;;5072022;28;19925;-78
2021/10/26 03:25:20;;;;;;;;;;;;;;;;;;5071931;28;19924;-78
2021/10/26 03:27:47;;;;;;;;;;;;;;;;;;5071792;28;19936;-78
2021/10/26 03:30:15;;;;;;;;;;;;;;;;;;5071627;28;19924;-78
2021/10/26 03:32:42;;;;;;;;;;;;;;;;;;5071890;28;19928;-80
2021/10/26 03:35:10;;;;;;;;;;;;;;;;;;5071661;28;19936;-79
2021/10/26 03:37:40;;;;;;;;;;;;;;;;;;5071222;28;19936;-78
2021/10/26 03:40:08;;;;;;;;;;;;;;;;;;5071839;28;19928;-78
2021/10/26 03:42:35;;;;;;;;;;;;;;;;;;5071615;28;19932;-79
2021/10/26 03:45:03;;;;;;;;;;;;;;;;;;5071256;28;19930;-78
2021/10/26 03:47:30;;;;;;;;;;;;;;;;;;5071195;28;19924;-77
2021/10/26 03:49:57;;;;;;;;;;;;;;;;;;5071319;28;20257;-79
2021/10/26 03:52:24;;;;;;;;;;;;;;;;;;5071617;28;19932;-79
2021/10/26 03:54:55;;;;;;;;;;;;;;;;;;5071359;28;19936;-80
2021/10/26 03:57:23;;;;;;;;;;;;;;;;;;5071495;28;19951;-77
2021/10/26 03:59:50;;;;;;;;;;;;;;;;;;5071300;28;19924;-80
2021/10/26 04:02:22;;;;;;;;;;;;;;;;;;5071169;28;19925;-80
2021/10/26 04:04:51;;;;;;;;;;;;;;;;;;5071331;28;20316;-79
2021/10/26 04:07:18;;;;;;;;;;;;;;;;;;5070946;28;20031;-78
2021/10/26 04:09:48;;;;;;;;;;;;;;;;;;5071131;28;20281;-78
2021/10/26 04:12:24;;;;;;;;;;;;;;;;;;5070959;28;20414;-79
2021/10/26 04:14:52;;;;;;;;;;;;;;;;;;5070922;28;19986;-79
2021/10/26 04:17:20;;;;;;;;;;;;;;;;;;5071284;28;19925;-79
2021/10/26 04:19:48;;;;;;;;;;;;;;;;;;5073155;28;19932;-80
2021/10/26 04:22:16;;;;;;;;;;;;;;;;;;5075384;28;19924;-79
2021/10/26 04:24:43;;;;;;;;;;;;;;;;;;5075066;28;19936;-79
2021/10/26 04:27:11;;;;;;;;;;;;;;;;;;5075062;28;19929;-79
2021/10/26 04:29:41;;;;;;;;;;;;;;;;;;5075104;28;19929;-79
2021/10/26 04:32:09;;;;;;;;;;;;;;;;;;5075117;28;20034;-80
2021/10/26 04:34:37;;;;;;;;;;;;;;;;;;5074997;28;20323;-78
2021/10/26 04:37:06;;;;;;;;;;;;;;;;;;5074584;28;20258;-77
2021/10/26 04:39:33;;;;;;;;;;;;;;;;;;5074675;28;19928;-78
2021/10/26 04:42:01;;;;;;;;;;;;;;;;;;5075234;28;19924;-78
2021/10/26 04:44:28;;;;;;;;;;;;;;;;;;5074885;28;19932;-77
2021/10/26 04:46:57;;;;;;;;;;;;;;;;;;5068717;28;19931;-78
2021/10/26 04:49:24;;;;;;;;;;;;;;;;;;5055043;28;20489;-77
2021/10/26 04:51:51;;;;;;;;;;;;;;;;;;5069427;28;20373;-77
2021/10/26 04:54:18;;;;;;;;;;;;;;;;;;5074203;28;19928;-78
2021/10/26 04:56:45;;;;;;;;;;;;;;;;;;5062973;28;19936;-79
2021/10/26 04:59:12;;;;;;;;;;;;;;;;;;5054298;28;19947;-78
2021/10/26 05:01:39;;;;;;;;;;;;;;;;;;5053839;28;19925;-78
2021/10/26 05:04:08;;;;;;;;;;;;;;;;;;5053726;28;19925;-77
2021/10/26 05:06:35;;;;;;;;;;;;;;;;;;5053701;28;19925;-77
2021/10/26 05:09:03;;;;;;;;;;;;;;;;;;5065723;28;20349;-79
2021/10/26 05:11:30;;;;;;;;;;;;;;;;;;5073898;28;20243;-78
2021/10/26 05:13:57;;;;;;;;;;;;;;;;;;5073841;28;19924;-78
2021/10/26 05:16:26;;;;;;;;;;;;;;;;;;5073695;28;19929;-78
2021/10/26 05:18:56;;;;;;;;;;;;;;;;;;5073634;28;19974;-78
2021/10/26 05:21:25;;;;;;;;;;;;;;;;;;5073792;28;20034;-78
2021/10/26 05:23:52;;;;;;;;;;;;;;;;;;5073606;28;19935;-79
2021/10/26 05:26:20;;;;;;;;;;;;;;;;;;5072805;28;20223;-79
2021/10/26 05:28:47;;;;;;;;;;;;;;;;;;5064973;28;19928;-78
2021/10/26 05:31:15;;;;;;;;;;;;;;;;;;5067675;28;19972;-77
2021/10/26 05:33:42;;;;;;;;;;;;;;;;;;5073074;28;20350;-76
2021/10/26 05:36:10;;;;;;;;;;;;;;;;;;5073107;28;19972;-78
2021/10/26 05:38:38;;;;;;;;;;;;;;;;;;5072975;28;19994;-78
2021/10/26 05:41:06;;;;;;;;;;;;;;;;;;5073629;28;19924;-78
2021/10/26 05:43:33;;;;;;;;;;;;;;;;;;5073057;28;20356;-78
2021/10/26 05:46:00;;;;;;;;;;;;;;;;;;5072196;28;19924;-78
2021/10/26 05:48:28;;;;;;;;;;;;;;;;;;5060717;28;19929;-79
2021/10/26 05:50:56;;;;;;;;;;;;;;;;;;5050671;28;19925;-79
2021/10/26 05:53:23;;;;;;;;;;;;;;;;;;5070051;28;20021;-78
2021/10/26 05:55:52;;;;;;;;;;;;;;;;;;5070655;28;19924;-79
2021/10/26 05:58:19;;;;;;;;;;;;;;;;;;5068480;28;19987;-79
2021/10/26 06:00:46;;;;;;;;;;;;;;;;;;5071339;28;19931;-79
2021/10/26 06:03:13;;;;;;;;;;;;;;;;;;5071253;28;19928;-79
2021/10/26 06:05:40;;;;;;;;;;;;;;;;;;5071232;28;19924;-79
2021/10/26 06:08:08;;;;;;;;;;;;;;;;;;5070820;28;19929;-79
2021/10/26 06:10:38;;;;;;;;;;;;;;;;;;5071544;28;19928;-79
2021/10/26 06:13:10;;;;;;;;;;;;;;;;;;5071457;28;20238;-78
2021/10/26 06:15:37;;;;;;;;;;;;;;;;;;5071506;28;19924;-77
2021/10/26 06:18:04;;;;;;;;;;;;;;;;;;5070999;28;19928;-77
2021/10/26 06:20:32;;;;;;;;;;;;;;;;;;5063426;28;20389;-76
2021/10/26 06:22:59;;;;;;;;;;;;;;;;;;5049556;28;20239;-78
2021/10/26 06:25:27;;;;;;;;;;;;;;;;;;5064208;28;19943;-78
2021/10/26 06:28:09;;;;;;;;;;;;;;;;;;5069315;28;20433;-78
2021/10/26 06:30:37;;;;;;;;;;;;;;;;;;5069220;28;19929;-78
2021/10/26 06:33:04;;;;;;;;;;;;;;;;;;5069424;28;19928;-77
2021/10/26 06:35:31;;;;;;;;;;;;;;;;;;5068938;28;20349;-78
2021/10/26 06:37:58;;;;;;;;;;;;;;;;;;5056372;28;19929;-76
2021/10/26 06:40:27;;;;;;;;;;;;;;;;;;5049305;28;19944;-76
2021/10/26 06:42:54;;;;;;;;;;;;;;;;;;5048380;28;20011;-77
2021/10/26 06:45:21;;;;;;;;;;;;;;;;;;5049220;28;19929;-77
2021/10/26 06:47:49;;;;;;;;;;;;;;;;;;5049095;28;19929;-78
2021/10/26 06:50:17;;;;;;;;;;;;;;;;;;5049390;28;19935;-78
2021/10/26 06:52:44;;;;;;;;;;;;;;;;;;5049356;28;19933;-79
2021/10/26 06:55:17;;;;;;;;;;;;;;;;;;5048814;28;19939;-78
2021/10/26 06:57:46;;;;;;;;;;;;;;;;;;5052182;28;19934;-77
2021/10/26 07:00:13;;;;;;;;;;;;;;;;;;5068857;28;19925;-78
2021/10/26 07:02:47;;;;;;;;;;;;;;;;;;5068997;28;20015;-76
2021/10/26 07:05:20;;;;;;;;;;;;;;;;;;5069052;28;19939;-79
2021/10/26 07:07:47;;;;;;;;;;;;;;;;;;5068721;28;19940;-79
2021/10/26 07:10:14;;;;;;;;;;;;;;;;;;5068207;28;19932;-76
2021/10/26 07:12:42;;;;;;;;;;;;;;;;;;5068237;28;19928;-78
2021/10/26 07:15:10;;;;;;;;;;;;;;;;;;5048977;28;19928;-78
2021/10/26 07:17:38;;;;;;;;;;;;;;;;;;5047852;28;19928;-78
2021/10/26 07:20:07;;;;;;;;;;;;;;;;;;5048658;28;19929;-78
2021/10/26 07:22:35;;;;;;;;;;;;;;;;;;5048772;28;19943;-77
2021/10/26 07:25:06;;;;;;;;;;;;;;;;;;5059761;28;19928;-78
2021/10/26 07:27:33;;;;;;;;;;;;;;;;;;5068883;28;19947;-77
2021/10/26 07:30:00;;;;;;;;;;;;;;;;;;5067995;28;19928;-77
2021/10/26 07:32:28;;;;;;;;;;;;;;;;;;5069155;28;19925;-79
2021/10/26 07:34:55;;;;;;;;;;;;;;;;;;5068411;28;19998;-79
2021/10/26 07:37:25;;;;;;;;;;;;;;;;;;5067935;28;19939;-77
2021/10/26 07:39:54;;;;;;;;;;;;;;;;;;5068797;28;19938;-76
2021/10/26 07:42:21;;;;;;;;;;;;;;;;;;5068625;28;19974;-76
2021/10/26 07:44:49;;;;;;;;;;;;;;;;;;5062154;28;19928;-76
2021/10/26 07:47:19;;;;;;;;;;;;;;;;;;5052164;28;20315;-77
2021/10/26 07:49:46;;;;;;;;;;;;;;;;;;5066635;28;19932;-78
2021/10/26 07:52:14;;;;;;;;;;;;;;;;;;5067768;28;20165;-77
2021/10/26 07:54:44;;;;;;;;;;;;;;;;;;5067892;28;19936;-76
2021/10/26 07:57:13;;;;;;;;;;;;;;;;;;5067255;28;19936;-76
2021/10/26 07:59:43;;;;;;;;;;;;;;;;;;5047385;28;19928;-78
2021/10/26 08:02:10;;;;;;;;;;;;;;;;;;5048219;28;20133;-76
2021/10/26 08:04:39;;;;;;;;;;;;;;;;;;5065445;28;21283;-76
2021/10/26 08:07:07;;;;;;;;;;;;;;;;;;5067744;28;19925;-76
2021/10/26 08:09:34;;;;;;;;;;;;;;;;;;5068206;28;19932;-79
2021/10/26 08:12:01;;;;;;;;;;;;;;;;;;5067904;28;19955;-78
2021/10/26 08:14:29;;;;;;;;;;;;;;;;;;5068125;28;19928;-77
2021/10/26 08:16:57;;;;;;;;;;;;;;;;;;5067060;28;19936;-77
2021/10/26 08:19:24;;;;;;;;;;;;;;;;;;5068178;28;19928;-77
2021/10/26 08:21:51;;;;;;;;;;;;;;;;;;5067817;28;19940;-79
2021/10/26 08:24:20;;;;;;;;;;;;;;;;;;5067489;28;19967;-79
2021/10/26 08:26:56;;;;;;;;;;;;;;;;;;5068084;28;19939;-77
2021/10/26 08:29:34;;;;;;;;;;;;;;;;;;5067642;28;19935;-76
2021/10/26 08:32:15;;;;;;;;;;;;;;;;;;5066688;28;20012;-78
2021/10/26 08:34:50;;;;;;;;;;;;;;;;;;5068156;28;19928;-77
2021/10/26 08:37:17;;;;;;;;;;;;;;;;;;5066791;28;20294;-77
2021/10/26 08:39:44;;;;;;;;;;;;;;;;;;5068130;28;19932;-77
2021/10/26 08:42:14;;;;;;;;;;;;;;;;;;5068224;28;20366;-77
2021/10/26 08:44:41;;;;;;;;;;;;;;;;;;5067607;28;19928;-78
2021/10/26 08:47:11;;;;;;;;;;;;;;;;;;5067339;28;20365;-78
2021/10/26 08:49:38;;;;;;;;;;;;;;;;;;5066365;28;19925;-78
2021/10/26 08:52:06;;;;;;;;;;;;;;;;;;5067884;28;19978;-79
2021/10/26 08:54:33;;;;;;;;;;;;;;;;;;5067503;28;20247;-80
2021/10/26 08:57:01;;;;;;;;;;;;;;;;;;5067675;28;20343;-77
2021/10/26 08:59:28;;;;;;;;;;;;;;;;;;5047699;28;19936;-79
2021/10/26 09:01:58;;;;;;;;;;;;;;;;;;5047019;28;19933;-78
2021/10/26 09:04:31;;;;;;;;;;;;;;;;;;5046999;28;19929;-79
2021/10/26 09:07:04;;;;;;;;;;;;;;;;;;5048946;28;19925;-78
2021/10/26 09:09:33;;;;;;;;;;;;;;;;;;5071207;28;19928;-77
2021/10/26 09:17:32;;;;;;;;;;;;;;;;;;5056135;28;19936;-80
2021/10/26 09:20:02;;;;;;;;;;;;;;;;;;5051165;28;19939;-79
2021/10/26 09:22:30;;;;;;;;;;;;;;;;;;5051114;28;19940;-81
2021/10/26 09:24:58;;;;;;;;;;;;;;;;;;5053178;28;19936;-80
2021/10/26 09:27:26;;;;;;;;;;;;;;;;;;5070184;28;19936;-79
2021/10/26 09:29:55;;;;;;;;;;;;;;;;;;5069483;28;19939;-79
2021/10/26 09:32:24;;;;;;;;;;;;;;;;;;5069891;28;20027;-79
2021/10/26 09:34:53;;;;;;;;;;;;;;;;;;5070880;28;19935;-79
2021/10/26 09:37:23;;;;;;;;;;;;;;;;;;5069919;28;19955;-80
2021/10/26 09:39:51;;;;;;;;;;;;;;;;;;5070215;28;20337;-80
2021/10/26 09:42:19;;;;;;;;;;;;;;;;;;5070805;28;19964;-78
2021/10/26 09:44:48;;;;;;;;;;;;;;;;;;5063984;28;19936;-77
2021/10/26 09:47:19;;;;;;;;;;;;;;;;;;5050705;28;19932;-79
2021/10/26 09:49:51;;;;;;;;;;;;;;;;;;5049622;28;19933;-79
2021/10/26 09:52:20;;;;;;;;;;;;;;;;;;5050534;28;19928;-78
2021/10/26 09:54:50;;;;;;;;;;;;;;;;;;5050239;28;19933;-78
2021/10/26 09:57:18;;;;;;;;;;;;;;;;;;5059369;28;20357;-79
2021/10/26 09:59:46;;;;;;;;;;;;;;;;;;5051077;28;20018;-80
2021/10/26 10:02:15;;;;;;;;;;;;;;;;;;5069631;28;20242;-80
2021/10/26 10:04:43;;;;;;;;;;;;;;;;;;5069745;28;19935;-79
2021/10/26 10:07:10;;;;;;;;;;;;;;;;;;5069421;28;19925;-79
2021/10/26 10:09:38;;;;;;;;;;;;;;;;;;5069050;28;19978;-79
2021/10/26 10:12:07;;;;;;;;;;;;;;;;;;5065772;28;19943;-79
2021/10/26 10:14:34;;;;;;;;;;;;;;;;;;5067389;28;19929;-79
2021/10/26 10:17:03;;;;;;;;;;;;;;;;;;5070176;28;19939;-81
2021/10/26 10:19:31;;;;;;;;;;;;;;;;;;5069962;28;19940;-79
2021/10/26 10:21:58;;;;;;;;;;;;;;;;;;5069986;28;19939;-77
2021/10/26 10:24:28;;;;;;;;;;;;;;;;;;5069076;28;19928;-78
2021/10/26 10:26:55;;;;;;;;;;;;;;;;;;5069563;28;20434;-79
2021/10/26 10:29:23;;;;;;;;;;;;;;;;;;5069548;28;19935;-81
2021/10/26 10:31:51;;;;;;;;;;;;;;;;;;5068857;28;19939;-80
2021/10/26 10:34:22;;;;;;;;;;;;;;;;;;5069912;28;19936;-77
2021/10/26 10:36:52;;;;;;;;;;;;;;;;;;5068814;28;20045;-78
2021/10/26 10:39:24;;;;;;;;;;;;;;;;;;5069437;28;19939;-78
2021/10/26 10:42:09;;;;;;;;;;;;;;;;;;5069847;28;19932;-79
2021/10/26 10:44:39;;;;;;;;;;;;;;;;;;5053474;28;19990;-78
2021/10/26 10:47:10;;;;;;;;;;;;;;;;;;5069163;28;19932;-78
2021/10/26 10:49:45;;;;;;;;;;;;;;;;;;5068723;28;20345;-78
2021/10/26 10:52:14;;;;;;;;;;;;;;;;;;5069152;28;19928;-77
2021/10/26 10:54:48;;;;;;;;;;;;;;;;;;5069048;28;20366;-79
2021/10/26 10:57:17;;;;;;;;;;;;;;;;;;5066755;28;20474;-78
2021/10/26 10:59:46;;;;;;;;;;;;;;;;;;5061157;28;19925;-79
2021/10/26 11:02:18;;;;;;;;;;;;;;;;;;5067408;28;20075;-78
2021/10/26 11:04:45;;;;;;;;;;;;;;;;;;5068978;28;20312;-79
2021/10/26 11:07:12;;;;;;;;;;;;;;;;;;5068176;28;19928;-83
2021/10/26 11:09:50;;;;;;;;;;;;;;;;;;5069765;28;19940;-80
2021/10/26 11:12:20;;;;;;;;;;;;;;;;;;5067298;28;19928;-80
2021/10/26 11:14:51;;;;;;;;;;;;;;;;;;5068144;28;19989;-80
2021/10/26 11:17:39;;;;;;;;;;;;;;;;;;5069193;28;19928;-80
2021/10/26 11:20:07;;;;;;;;;;;;;;;;;;5057464;28;19924;-81
2021/10/26 11:22:50;;;;;;;;;;;;;;;;;;5068196;28;19933;-81
2021/10/26 11:25:18;;;;;;;;;;;;;;;;;;5068030;28;19946;-82
2021/10/26 11:27:46;;;;;;;;;;;;;;;;;;5068980;28;20349;-81
2021/10/26 11:30:31;;;;;;;;;;;;;;;;;;5051063;28;19932;-80
2021/10/26 11:33:17;;;;;;;;;;;;;;;;;;5053470;28;20439;-82
2021/10/26 11:35:50;;;;;;;;;;;;;;;;;;5068431;28;19928;-81
2021/10/26 11:38:19;;;;;;;;;;;;;;;;;;5067859;28;19933;-80
2021/10/26 11:40:49;;;;;;;;;;;;;;;;;;5063476;28;19943;-81
2021/10/26 11:43:17;;;;;;;;;;;;;;;;;;5067501;28;20433;-80
2021/10/26 11:45:52;;;;;;;;;;;;;;;;;;5067534;28;20006;-80
2021/10/26 11:48:34;;;;;;;;;;;;;;;;;;5067940;28;20233;-79
2021/10/26 11:51:16;;;;;;;;;;;;;;;;;;5067919;28;19928;-79
2021/10/26 11:53:43;;;;;;;;;;;;;;;;;;5067830;28;20237;-79
2021/10/26 11:56:20;;;;;;;;;;;;;;;;;;5068031;28;20365;-77
2021/10/26 11:58:58;;;;;;;;;;;;;;;;;;5068149;28;19928;-77
2021/10/26 12:01:36;;;;;;;;;;;;;;;;;;5057336;28;19936;-77
2021/10/26 12:04:04;;;;;;;;;;;;;;;;;;5064214;28;19925;-79
2021/10/26 12:06:35;;;;;;;;;;;;;;;;;;5074100;28;19997;-78
2021/10/26 12:09:04;;;;;;;;;;;;;;;;;;5066970;28;19939;-79
2021/10/26 12:11:33;;;;;;;;;;;;;;;;;;5055509;28;20287;-79
2021/10/26 12:14:20;;;;;;;;;;;;;;;;;;5066751;28;20346;-77
2021/10/26 12:17:05;;;;;;;;;;;;;;;;;;5066825;28;19928;-77
2021/10/26 12:19:33;;;;;;;;;;;;;;;;;;5067945;28;19931;-77
2021/10/26 12:22:01;;;;;;;;;;;;;;;;;;5068109;28;19929;-77
2021/10/26 12:24:29;;;;;;;;;;;;;;;;;;5068331;28;20049;-78
2021/10/26 12:26:57;;;;;;;;;;;;;;;;;;5064852;28;20342;-78
2021/10/26 12:29:27;;;;;;;;;;;;;;;;;;5056311;28;19976;-78
2021/10/26 12:31:54;;;;;;;;;;;;;;;;;;5066174;28;19928;-78
2021/10/26 12:34:21;;;;;;;;;;;;;;;;;;5067919;28;19928;-80
2021/10/26 12:36:48;;;;;;;;;;;;;;;;;;5067058;28;19925;-78
2021/10/26 12:39:23;;;;;;;;;;;;;;;;;;5067024;28;19940;-78
2021/10/26 12:41:50;;;;;;;;;;;;;;;;;;5071771;28;19940;-80
2021/10/26 12:44:20;;;;;;;;;;;;;;;;;;5072310;28;20361;-80
2021/10/26 12:47:01;;;;;;;;;;;;;;;;;;5065494;28;20337;-80
2021/10/26 12:49:35;;;;;;;;;;;;;;;;;;5063825;28;20031;-80
2021/10/26 12:52:11;;;;;;;;;;;;;;;;;;5072795;28;19939;-78
2021/10/26 12:54:39;;;;;;;;;;;;;;;;;;5072745;28;20163;-79
2021/10/26 12:57:06;;;;;;;;;;;;;;;;;;5071925;28;19932;-78
2021/10/26 12:59:37;;;;;;;;;;;;;;;;;;5072866;28;19928;-78
2021/10/26 13:02:07;;;;;;;;;;;;;;;;;;5072406;28;19929;-78
2021/10/26 13:04:38;;;;;;;;;;;;;;;;;;5072205;28;19929;-77
2021/10/26 13:07:06;;;;;;;;;;;;;;;;;;5072029;28;20042;-77
2021/10/26 13:09:35;;;;;;;;;;;;;;;;;;5063511;28;20045;-77
2021/10/26 13:12:08;;;;;;;;;;;;;;;;;;5071845;28;20019;-77
2021/10/26 13:14:37;;;;;;;;;;;;;;;;;;5071936;28;20356;-80
2021/10/26 13:17:21;;;;;;;;;;;;;;;;;;5072065;28;20167;-80
2021/10/26 13:19:48;;;;;;;;;;;;;;;;;;5054987;28;19925;-78
2021/10/26 13:22:15;;;;;;;;;;;;;;;;;;5072067;28;19928;-77
2021/10/26 13:24:42;;;;;;;;;;;;;;;;;;5072302;28;19944;-78
2021/10/26 13:27:12;;;;;;;;;;;;;;;;;;5071478;28;19929;-78
2021/10/26 13:29:41;;;;;;;;;;;;;;;;;;5071733;28;19929;-79
2021/10/26 13:32:17;;;;;;;;;;;;;;;;;;5071347;28;19928;-78
2021/10/26 13:34:45;;;;;;;;;;;;;;;;;;5071872;28;20026;-78
2021/10/26 13:37:12;;;;;;;;;;;;;;;;;;5071417;28;19940;-78
2021/10/26 13:39:39;;;;;;;;;;;;;;;;;;5071954;28;19928;-79
2021/10/26 13:42:06;;;;;;;;;;;;;;;;;;5070255;28;19936;-78
2021/10/26 13:44:35;;;;;;;;;;;;;;;;;;5067805;28;19947;-79
2021/10/26 13:47:02;;;;;;;;;;;;;;;;;;5053049;28;19940;-80
2021/10/26 13:49:29;;;;;;;;;;;;;;;;;;5070690;28;19928;-78
2021/10/26 13:51:56;;;;;;;;;;;;;;;;;;5060392;28;19928;-78
2021/10/26 13:54:24;;;;;;;;;;;;;;;;;;5070888;28;19929;-77
2021/10/26 13:56:52;;;;;;;;;;;;;;;;;;5077376;28;19931;-79
2021/10/26 13:59:19;;;;;;;;;;;;;;;;;;5069664;28;19928;-80
2021/10/26 14:01:47;;;;;;;;;;;;;;;;;;5050744;28;19936;-80
2021/10/26 14:04:15;;;;;;;;;;;;;;;;;;5054726;28;19939;-80
2021/10/26 14:06:43;;;;;;;;;;;;;;;;;;5072740;28;19951;-81
2021/10/26 14:09:11;;;;;;;;;;;;;;;;;;5072806;28;20007;-79
2021/10/26 14:11:38;;;;;;;;;;;;;;;;;;5060433;28;20350;-80
2021/10/26 14:14:05;;;;;;;;;;;;;;;;;;5072847;28;19928;-81
2021/10/26 14:16:34;;;;;;;;;;;;;;;;;;5072126;28;20342;-81
2021/10/26 14:19:03;;;;;;;;;;;;;;;;;;5068348;28;19994;-80
2021/10/26 14:21:33;;;;;;;;;;;;;;;;;;5072564;28;20346;-80
2021/10/26 14:24:00;;;;;;;;;;;;;;;;;;5059260;28;19928;-81
2021/10/26 14:26:27;;;;;;;;;;;;;;;;;;5052145;28;19939;-81
2021/10/26 14:28:55;;;;;;;;;;;;;;;;;;5051619;28;19929;-82
2021/10/26 14:31:23;;;;;;;;;;;;;;;;;;5051728;28;19952;-81
2021/10/26 14:33:52;;;;;;;;;;;;;;;;;;5051462;28;20422;-80
2021/10/26 14:36:26;;;;;;;;;;;;;;;;;;5051454;28;19928;-80
2021/10/26 14:38:57;;;;;;;;;;;;;;;;;;5050506;28;19933;-80
2021/10/26 14:41:34;;;;;;;;;;;;;;;;;;5051068;28;19936;-80
2021/10/26 14:55:06;;;;;;;;;;;;;;;;;;5052289;28;20018;-81
2021/10/26 14:57:34;;;;;;;;;;;;;;;;;;5054657;28;20287;-81
2021/10/26 15:00:01;;;;;;;;;;;;;;;;;;5067919;28;19924;-81
2021/10/26 15:02:29;;;;;;;;;;;;;;;;;;5072024;28;19928;-81
2021/10/26 15:04:56;;;;;;;;;;;;;;;;;;5070579;28;19924;-81
2021/10/26 15:07:25;;;;;;;;;;;;;;;;;;5070984;28;19939;-81
2021/10/26 15:09:55;;;;;;;;;;;;;;;;;;5071814;28;19972;-81
2021/10/26 15:12:34;;;;;;;;;;;;;;;;;;5071038;28;19990;-81
2021/10/26 15:15:03;;;;;;;;;;;;;;;;;;5071090;28;19928;-81
2021/10/26 15:17:31;;;;;;;;;;;;;;;;;;5071046;28;19925;-78
2021/10/26 15:20:03;;;;;;;;;;;;;;;;;;5072075;28;20128;-79
2021/10/26 15:22:37;;;;;;;;;;;;;;;;;;5072280;28;19928;-79
2021/10/26 15:33:27;;;;;;;;;;;;;;;;;;5071577;28;20348;-78
2021/10/26 15:35:55;;;;;;;;;;;;;;;;;;5071377;28;19936;-80
2021/10/26 15:38:24;;;;;;;;;;;;;;;;;;5071706;28;19929;-79
2021/10/26 15:40:51;;;;;;;;;;;;;;;;;;5071420;28;19939;-79
2021/10/26 15:43:18;;;;;;;;;;;;;;;;;;5071836;28;19928;-77
2021/10/26 15:45:45;;;;;;;;;;;;;;;;;;5071748;28;20031;-78
2021/10/26 15:48:12;;;;;;;;;;;;;;;;;;5071005;28;19963;-79
2021/10/26 15:50:40;;;;;;;;;;;;;;;;;;5071540;28;19928;-78
2021/10/26 15:53:09;;;;;;;;;;;;;;;;;;5071298;28;19928;-78
2021/10/26 15:55:38;;;;;;;;;;;;;;;;;;5071474;28;20363;-79
2021/10/26 15:58:06;;;;;;;;;;;;;;;;;;5071119;28;19928;-78
2021/10/26 16:00:33;;;;;;;;;;;;;;;;;;5071340;28;19932;-78
2021/10/26 16:03:00;;;;;;;;;;;;;;;;;;5071109;28;19928;-79
2021/10/26 16:05:27;;;;;;;;;;;;;;;;;;5071089;28;19924;-79
2021/10/26 16:07:55;;;;;;;;;;;;;;;;;;5070869;28;20298;-79
2021/10/26 16:10:26;;;;;;;;;;;;;;;;;;5071201;28;19932;-79
2021/10/26 16:12:58;;;;;;;;;;;;;;;;;;5070838;28;20078;-79
2021/10/26 16:15:30;;;;;;;;;;;;;;;;;;5071067;28;19976;-79
2021/10/26 16:17:57;;;;;;;;;;;;;;;;;;5070850;28;19940;-79
2021/10/26 16:20:25;;;;;;;;;;;;;;;;;;5071083;28;19928;-80
2021/10/26 16:22:52;;;;;;;;;;;;;;;;;;5071219;28;19929;-79
2021/10/26 16:25:20;;;;;;;;;;;;;;;;;;5071257;28;20011;-78
2021/10/26 16:27:48;;;;;;;;;;;;;;;;;;5071267;28;20254;-78
2021/10/26 16:30:18;;;;;;;;;;;;;;;;;;5071082;28;19930;-78
2021/10/26 16:32:48;;;;;;;;;;;;;;;;;;5071193;28;19929;-79
2021/10/26 16:35:16;;;;;;;;;;;;;;;;;;5070837;28;19928;-77
2021/10/26 16:37:43;;;;;;;;;;;;;;;;;;5070825;28;19939;-78
2021/10/26 16:40:11;;;;;;;;;;;;;;;;;;5071469;28;20040;-78
2021/10/26 16:42:41;;;;;;;;;;;;;;;;;;5070914;28;19936;-78
2021/10/26 16:45:18;;;;;;;;;;;;;;;;;;5070878;28;19994;-78
2021/10/26 16:47:47;;;;;;;;;;;;;;;;;;5070665;28;19939;-80
2021/10/26 16:50:14;;;;;;;;;;;;;;;;;;5071060;28;19951;-79
2021/10/26 16:52:41;;;;;;;;;;;;;;;;;;5071018;28;19928;-77
2021/10/26 16:55:09;;;;;;;;;;;;;;;;;;5070851;28;19925;-79
2021/10/26 16:57:36;;;;;;;;;;;;;;;;;;5070797;28;20257;-78
2021/10/26 17:00:06;;;;;;;;;;;;;;;;;;5071130;28;19933;-78
2021/10/26 17:02:34;;;;;;;;;;;;;;;;;;5070682;28;20015;-76
2021/10/26 17:05:04;;;;;;;;;;;;;;;;;;5070752;28;19967;-77
2021/10/26 17:07:31;;;;;;;;;;;;;;;;;;5070807;28;20330;-80
2021/10/26 17:09:59;;;;;;;;;;;;;;;;;;5070727;28;20415;-81
2021/10/26 17:12:26;;;;;;;;;;;;;;;;;;5070401;28;20306;-80
2021/10/26 17:14:53;;;;;;;;;;;;;;;;;;5070490;28;19935;-80
2021/10/26 17:17:20;;;;;;;;;;;;;;;;;;5070801;28;20349;-79
2021/10/26 17:19:47;;;;;;;;;;;;;;;;;;5070865;28;20015;-79
2021/10/26 17:22:16;;;;;;;;;;;;;;;;;;5072350;28;19924;-79